Time;durP1;ratioP1;P1;durP2;ratioP2;P2;SDS_P1;SDS_P2;PMS_P1;PMS_P2;Temp;Humidity;BMP_temperature;BMP_pressure;BME280_temperature;BME280_humidity;BME280_pressure;Samples;Min_cycle;Max_cycle;Signal;HPM_P1;HPM_P2
2021/06/13 00:01:26;;;;;;;5.10;3.00;;;19.00;99.90;;;;;;5031134;28;20084;-77
2021/06/13 00:03:51;;;;;;;3.92;3.13;;;19.00;99.90;;;;;;5032338;28;20090;-76
2021/06/13 00:06:17;;;;;;;3.10;2.80;;;19.00;99.90;;;;;;5032179;28;20222;-76
2021/06/13 00:08:43;;;;;;;4.53;2.97;;;19.00;99.90;;;;;;5072273;22;20141;-78
2021/06/13 00:11:10;;;;;;;3.40;2.90;;;19.10;99.90;;;;;;5031779;28;20477;-76
2021/06/13 00:13:36;;;;;;;3.75;3.10;;;19.00;99.90;;;;;;5038926;28;20078;-76
2021/06/13 00:16:03;;;;;;;3.80;3.40;;;18.80;99.90;;;;;;5009314;28;20086;-77
2021/06/13 00:18:28;;;;;;;4.40;3.28;;;18.90;99.90;;;;;;5020335;28;20108;-76
2021/06/13 00:20:54;;;;;;;5.07;3.58;;;18.90;99.90;;;;;;5030866;28;20160;-77
2021/06/13 00:23:20;;;;;;;6.82;3.90;;;18.90;99.90;;;;;;5029028;28;20600;-77
2021/06/13 00:25:47;;;;;;;5.00;3.58;;;18.80;99.90;;;;;;5011614;28;20452;-76
2021/06/13 00:28:13;;;;;;;4.28;3.85;;;18.80;99.90;;;;;;5018526;28;20106;-77
2021/06/13 00:30:39;;;;;;;4.97;3.63;;;18.70;99.90;;;;;;5030231;28;20715;-77
2021/06/13 00:33:06;;;;;;;4.03;3.55;;;18.70;99.90;;;;;;5048783;28;20526;-77
2021/06/13 00:35:31;;;;;;;5.78;3.60;;;18.80;99.90;;;;;;5034870;28;20585;-74
2021/06/13 00:37:57;;;;;;;9.73;4.15;;;18.80;99.90;;;;;;5027394;28;20093;-74
2021/06/13 00:40:25;;;;;;;4.22;3.83;;;18.70;99.90;;;;;;5042207;28;20138;-74
2021/06/13 00:42:51;;;;;;;6.38;4.07;;;18.80;99.90;;;;;;5029952;28;20159;-74
2021/06/13 00:45:18;;;;;;;4.53;3.80;;;18.70;99.90;;;;;;5033663;28;20078;-77
2021/06/13 00:47:44;;;;;;;5.63;4.25;;;18.80;99.90;;;;;;5026503;28;20106;-76
2021/06/13 00:50:16;;;;;;;5.18;4.03;;;18.50;99.90;;;;;;5039098;28;20066;-78
2021/06/13 00:52:42;;;;;;;4.88;3.70;;;18.50;99.90;;;;;;5027142;28;20504;-78
2021/06/13 00:55:09;;;;;;;7.03;3.95;;;18.60;99.90;;;;;;5043907;28;20148;-78
2021/06/13 00:57:34;;;;;;;5.70;4.50;;;18.60;99.90;;;;;;5027228;28;20093;-77
2021/06/13 01:00:00;;;;;;;6.28;4.10;;;18.50;99.90;;;;;;5036553;28;20483;-77
2021/06/13 01:02:26;;;;;;;4.53;3.67;;;18.40;99.90;;;;;;5026973;28;20113;-78
2021/06/13 01:04:51;;;;;;;4.75;4.18;;;18.50;99.90;;;;;;5032407;28;20081;-77
2021/06/13 01:07:46;;;;;;;4.50;4.03;;;18.40;99.90;;;;;;5044312;28;20094;-77
2021/06/13 01:10:34;;;;;;;6.40;4.45;;;18.40;99.90;;;;;;5013425;28;20098;-77
2021/06/13 01:13:17;;;;;;;5.65;4.53;;;18.50;99.90;;;;;;5029222;28;20070;-77
2021/06/13 01:15:52;;;;;;;5.37;4.07;;;18.50;99.90;;;;;;4991924;28;20337;-77
2021/06/13 01:18:17;;;;;;;;;;;18.40;99.90;;;;;;4997879;28;21134;-77
2021/06/13 01:20:52;;;;;;;7.63;4.22;;;18.40;99.90;;;;;;5029113;28;20006;-77
2021/06/13 01:23:55;;;;;;;4.68;4.15;;;18.40;99.90;;;;;;5040741;28;20084;-77
2021/06/13 01:26:48;;;;;;;4.88;4.40;;;18.20;99.90;;;;;;5031818;28;20093;-77
2021/06/13 01:29:20;;;;;;;5.68;3.72;;;18.30;99.90;;;;;;5028384;28;20106;-77
2021/06/13 01:31:50;;;;;;;6.20;4.25;;;18.30;99.90;;;;;;5028613;28;20070;-77
2021/06/13 01:34:21;;;;;;;5.32;3.95;;;18.40;99.90;;;;;;5015281;28;20110;-77
2021/06/13 01:36:48;;;;;;;6.80;4.00;;;18.40;99.90;;;;;;5030983;28;20077;-77
2021/06/13 01:39:18;;;;;;;4.05;3.65;;;18.30;99.90;;;;;;5043728;28;20581;-77
2021/06/13 01:41:47;;;;;;;5.85;4.55;;;18.30;99.90;;;;;;5027120;28;20102;-77
2021/06/13 01:44:13;;;;;;;5.93;3.85;;;18.30;99.90;;;;;;5028188;28;20078;-77
2021/06/13 01:46:41;;;;;;;6.28;4.75;;;18.30;99.90;;;;;;5015667;28;20073;-77
2021/06/13 01:49:07;;;;;;;5.05;3.85;;;18.30;99.90;;;;;;5046083;28;20632;-76
2021/06/13 01:51:36;;;;;;;5.40;3.78;;;18.20;99.90;;;;;;5046109;28;20211;-77
2021/06/13 01:54:03;;;;;;;6.72;4.60;;;18.20;99.90;;;;;;5039266;28;20069;-77
2021/06/13 01:56:30;;;;;;;5.18;4.40;;;18.10;99.90;;;;;;5036019;28;20135;-77
2021/06/13 01:58:58;;;;;;;5.05;4.22;;;18.10;99.90;;;;;;5024416;28;20548;-77
2021/06/13 02:01:26;;;;;;;4.82;3.75;;;18.10;99.90;;;;;;5028402;28;20173;-77
2021/06/13 02:03:54;;;;;;;5.97;4.10;;;18.00;99.90;;;;;;5032091;28;20537;-77
2021/06/13 02:06:26;;;;;;;6.53;3.90;;;18.10;99.90;;;;;;5033726;28;20082;-77
2021/06/13 02:08:53;;;;;;;6.28;4.35;;;18.10;99.90;;;;;;5023838;28;20098;-77
2021/06/13 02:11:20;;;;;;;7.63;4.82;;;18.00;99.90;;;;;;5033175;28;20086;-77
2021/06/13 02:13:47;;;;;;;7.20;3.75;;;18.00;99.90;;;;;;5019162;28;20078;-76
2021/06/13 02:16:18;;;;;;;5.63;4.45;;;18.00;99.90;;;;;;5009684;28;20083;-77
2021/06/13 02:18:45;;;;;;;7.50;4.65;;;18.00;99.90;;;;;;5016178;28;20185;-77
2021/06/13 02:21:12;;;;;;;5.82;4.25;;;18.00;99.90;;;;;;5032413;28;20074;-77
2021/06/13 02:23:39;;;;;;;4.63;4.22;;;18.00;99.90;;;;;;5031745;28;20073;-77
2021/06/13 02:26:05;;;;;;;6.63;4.68;;;18.00;99.90;;;;;;5031181;28;20070;-76
2021/06/13 02:28:36;;;;;;;4.60;3.78;;;18.00;99.90;;;;;;5038826;28;20100;-77
2021/06/13 02:31:03;;;;;;;7.00;4.47;;;18.00;99.90;;;;;;5038208;28;20159;-74
2021/06/13 02:33:31;;;;;;;4.95;3.88;;;18.00;99.90;;;;;;5034218;28;20162;-75
2021/06/13 02:35:59;;;;;;;6.45;5.28;;;18.10;99.90;;;;;;5030030;28;20074;-74
2021/06/13 02:38:25;;;;;;;5.43;4.10;;;18.00;99.90;;;;;;5021425;28;20093;-77
2021/06/13 02:40:53;;;;;;;8.40;4.25;;;18.10;99.90;;;;;;5040598;28;20084;-76
2021/06/13 02:43:18;;;;;;;4.70;4.18;;;18.00;99.90;;;;;;5013679;28;20088;-77
2021/06/13 02:45:44;;;;;;;5.40;4.22;;;18.00;99.90;;;;;;5032249;28;20089;-77
2021/06/13 02:48:12;;;;;;;5.95;4.78;;;17.90;99.90;;;;;;5039019;28;20094;-77
2021/06/13 02:50:38;;;;;;;6.80;4.00;;;17.90;99.90;;;;;;5026226;28;20078;-77
2021/06/13 02:53:12;;;;;;;6.82;4.65;;;17.90;99.90;;;;;;5040426;28;20074;-77
2021/06/13 02:55:56;;;;;;;;;;;17.90;99.90;;;;;;5038748;28;20158;-77
2021/06/13 02:58:29;;;;;;;6.47;4.50;;;18.00;99.90;;;;;;5041779;28;20479;-76
2021/06/13 03:00:56;;;;;;;8.00;4.93;;;17.80;99.90;;;;;;5031457;28;20082;-76
2021/06/13 03:03:25;;;;;;;5.85;4.30;;;17.70;99.90;;;;;;5041096;28;20088;-76
2021/06/13 03:05:52;;;;;;;7.22;4.75;;;17.70;99.90;;;;;;5032188;28;20506;-76
2021/06/13 03:08:19;;;;;;;5.47;4.60;;;17.80;99.90;;;;;;5033011;28;20822;-76
2021/06/13 03:10:47;;;;;;;7.20;5.43;;;17.60;99.90;;;;;;5033334;28;20070;-76
2021/06/13 03:13:14;;;;;;;8.15;5.43;;;17.60;99.90;;;;;;5040561;28;20105;-76
2021/06/13 03:15:41;;;;;;;6.93;5.63;;;17.60;99.90;;;;;;5024594;28;20489;-76
2021/06/13 03:18:08;;;;;;;7.03;5.88;;;17.60;99.90;;;;;;5031151;28;20093;-77
2021/06/13 03:20:35;;;;;;;7.68;4.68;;;17.40;99.90;;;;;;5013501;28;20088;-76
2021/06/13 03:23:01;;;;;;;8.80;5.55;;;17.50;99.90;;;;;;4995383;28;20077;-76
2021/06/13 03:25:27;;;;;;;5.95;5.07;;;17.30;99.90;;;;;;5034064;28;20563;-76
2021/06/13 03:27:53;;;;;;;11.00;8.15;;;17.30;99.90;;;;;;5031025;28;20108;-76
2021/06/13 03:30:19;;;;;;;6.43;5.68;;;17.20;99.90;;;;;;5030013;28;20157;-76
2021/06/13 03:32:45;;;;;;;8.48;5.43;;;17.20;99.90;;;;;;5029336;28;20117;-76
2021/06/13 03:35:11;;;;;;;6.68;5.70;;;17.10;99.90;;;;;;5039430;28;20099;-76
2021/06/13 03:37:37;;;;;;;6.70;5.60;;;17.20;99.90;;;;;;5031858;28;20504;-75
2021/06/13 03:40:05;;;;;;;8.45;5.30;;;17.30;99.90;;;;;;5029547;28;20081;-76
2021/06/13 03:42:31;;;;;;;6.75;5.03;;;17.30;99.90;;;;;;5030067;28;20453;-76
2021/06/13 03:44:58;;;;;;;8.35;5.55;;;17.30;99.90;;;;;;5039558;28;20146;-76
2021/06/13 03:47:24;;;;;;;6.68;5.60;;;17.30;99.90;;;;;;5013566;28;20090;-76
2021/06/13 03:49:52;;;;;;;6.95;5.28;;;17.10;99.90;;;;;;5037061;28;20789;-76
2021/06/13 03:52:19;;;;;;;11.55;5.22;;;17.10;99.90;;;;;;5050158;28;20078;-76
2021/06/13 03:54:45;;;;;;;6.00;4.85;;;17.20;99.90;;;;;;5044508;28;20066;-76
2021/06/13 03:57:11;;;;;;;7.10;4.93;;;17.10;99.90;;;;;;5029903;28;20151;-76
2021/06/13 03:59:38;;;;;;;5.40;4.43;;;17.00;99.90;;;;;;5012673;28;20082;-76
2021/06/13 04:02:05;;;;;;;8.13;5.22;;;17.00;99.90;;;;;;5044596;28;20440;-77
2021/06/13 04:04:41;;;;;;;7.15;4.70;;;17.00;99.90;;;;;;5026925;28;20074;-76
2021/06/13 04:07:08;;;;;;;5.97;5.38;;;16.90;99.90;;;;;;5021106;28;20085;-76
2021/06/13 04:09:38;;;;;;;8.80;5.15;;;16.80;99.90;;;;;;5042653;28;20074;-76
2021/06/13 04:12:05;;;;;;;5.30;4.80;;;16.80;99.90;;;;;;5012109;28;20080;-76
2021/06/13 04:14:31;;;;;;;7.75;5.32;;;16.90;99.90;;;;;;5029458;28;20080;-76
2021/06/13 04:16:58;;;;;;;7.05;5.45;;;16.70;99.90;;;;;;5031488;28;20066;-76
2021/06/13 04:19:24;;;;;;;8.60;5.32;;;16.80;99.90;;;;;;5016965;28;20110;-77
2021/06/13 04:21:50;;;;;;;5.78;4.88;;;16.70;99.90;;;;;;4977989;28;20193;-76
2021/06/13 04:24:17;;;;;;;6.68;4.50;;;16.80;99.90;;;;;;5039592;28;20231;-76
2021/06/13 04:26:43;;;;;;;5.55;4.68;;;16.70;99.90;;;;;;5035386;28;20066;-76
2021/06/13 04:29:10;;;;;;;5.80;4.10;;;16.60;99.90;;;;;;5031773;28;20108;-76
2021/06/13 04:31:35;;;;;;;8.40;5.40;;;16.80;99.90;;;;;;5048034;28;20076;-76
2021/06/13 04:34:01;;;;;;;7.75;4.90;;;16.80;99.90;;;;;;5039995;28;20073;-78
2021/06/13 04:36:27;;;;;;;4.93;3.95;;;16.80;99.90;;;;;;5051956;28;20073;-78
2021/06/13 04:38:52;;;;;;;8.13;4.82;;;16.90;99.90;;;;;;5035715;28;20085;-76
2021/06/13 04:41:19;;;;;;;7.53;4.63;;;17.00;99.90;;;;;;5044534;28;20127;-76
2021/06/13 04:43:46;;;;;;;6.85;4.97;;;17.00;99.90;;;;;;5038767;28;20073;-77
2021/06/13 04:46:12;;;;;;;6.50;4.22;;;17.10;99.90;;;;;;5046284;28;20156;-78
2021/06/13 04:48:39;;;;;;;5.75;4.72;;;17.00;99.90;;;;;;5052514;28;20161;-77
2021/06/13 04:51:08;;;;;;;7.30;4.97;;;17.00;99.90;;;;;;5036425;28;20093;-75
2021/06/13 04:53:52;;;;;;;5.30;4.78;;;16.80;99.90;;;;;;5047909;28;20085;-77
2021/06/13 04:56:29;;;;;;;6.22;4.53;;;16.90;99.90;;;;;;5034173;28;20169;-77
2021/06/13 04:58:55;;;;;;;5.95;4.68;;;17.00;99.90;;;;;;5029366;28;20442;-76
2021/06/13 05:01:21;;;;;;;4.95;4.35;;;16.90;99.90;;;;;;5041753;28;20089;-78
2021/06/13 05:03:46;;;;;;;9.15;4.60;;;16.70;99.90;;;;;;5038204;28;20166;-76
2021/06/13 05:06:12;;;;;;;6.55;4.90;;;16.70;99.90;;;;;;5032636;28;20089;-75
2021/06/13 05:08:42;;;;;;;6.40;4.10;;;16.80;99.90;;;;;;5037331;28;20188;-77
2021/06/13 05:11:09;;;;;;;8.40;4.25;;;16.80;99.90;;;;;;5018475;28;20074;-76
2021/06/13 05:13:35;;;;;;;7.00;4.50;;;16.90;99.90;;;;;;5030397;28;20073;-76
2021/06/13 05:16:00;;;;;;;6.90;3.80;;;16.80;99.90;;;;;;5041087;28;20530;-76
2021/06/13 05:18:26;;;;;;;8.20;4.55;;;16.70;99.90;;;;;;5031487;28;20826;-76
2021/06/13 05:20:54;;;;;;;4.40;3.83;;;16.70;99.90;;;;;;5018322;28;20077;-76
2021/06/13 05:23:22;;;;;;;6.40;3.95;;;16.70;99.90;;;;;;4999113;28;20127;-76
2021/06/13 05:25:51;;;;;;;6.32;4.57;;;16.80;99.90;;;;;;5031040;28;20102;-76
2021/06/13 05:28:17;;;;;;;5.93;4.45;;;16.70;99.90;;;;;;5040356;28;20148;-76
2021/06/13 05:30:43;;;;;;;5.53;3.90;;;16.80;99.90;;;;;;5033065;28;20374;-76
2021/06/13 05:33:09;;;;;;;7.03;4.20;;;16.80;99.90;;;;;;5037818;28;20555;-76
2021/06/13 05:35:37;;;;;;;6.60;4.50;;;16.90;99.90;;;;;;5034187;28;20078;-76
2021/06/13 05:38:03;;;;;;;5.22;4.45;;;17.00;99.90;;;;;;5037079;28;20093;-76
2021/06/13 05:40:30;;;;;;;6.57;4.07;;;16.90;99.90;;;;;;5045627;28;20073;-76
2021/06/13 05:42:56;;;;;;;5.05;3.33;;;16.90;99.90;;;;;;5046693;28;20086;-76
2021/06/13 05:45:23;;;;;;;7.10;3.90;;;17.10;99.90;;;;;;5032532;28;20078;-76
2021/06/13 05:47:49;;;;;;;6.75;3.85;;;17.10;99.90;;;;;;5038822;28;20654;-76
2021/06/13 05:50:16;;;;;;;7.60;4.32;;;17.20;99.90;;;;;;5046555;28;20094;-76
2021/06/13 05:52:42;;;;;;;7.28;3.83;;;17.20;99.90;;;;;;5048714;28;20070;-76
2021/06/13 05:55:09;;;;;;;4.95;3.38;;;17.10;99.90;;;;;;5020867;28;20074;-76
2021/06/13 05:57:36;;;;;;;4.32;3.92;;;17.10;99.90;;;;;;5014429;28;20106;-76
2021/06/13 06:00:04;;;;;;;4.90;4.05;;;17.20;99.90;;;;;;5014920;28;20077;-76
2021/06/13 06:02:30;;;;;;;4.43;3.55;;;17.20;99.90;;;;;;5032216;28;20073;-75
2021/06/13 06:04:55;;;;;;;5.25;3.22;;;17.30;99.90;;;;;;5040845;28;20430;-76
2021/06/13 06:07:21;;;;;;;5.80;2.72;;;17.30;99.90;;;;;;5035104;28;20152;-76
2021/06/13 06:09:46;;;;;;;7.28;3.25;;;17.50;99.90;;;;;;5035771;28;20180;-76
2021/06/13 06:12:12;;;;;;;5.22;2.97;;;17.50;99.90;;;;;;5040475;28;20081;-76
2021/06/13 06:14:39;;;;;;;5.20;2.80;;;17.50;99.90;;;;;;5049526;28;20194;-76
2021/06/13 06:17:05;;;;;;;6.07;2.92;;;17.40;99.90;;;;;;5029706;28;20437;-76
2021/06/13 06:19:31;;;;;;;5.20;2.92;;;17.30;99.90;;;;;;5038760;28;20105;-76
2021/06/13 06:21:57;;;;;;;5.45;2.83;;;17.40;99.90;;;;;;5035129;28;20098;-76
2021/06/13 06:24:23;;;;;;;6.05;2.72;;;17.50;99.90;;;;;;5034339;28;20081;-76
2021/06/13 06:26:48;;;;;;;6.00;3.00;;;17.50;99.90;;;;;;5043463;28;20105;-76
2021/06/13 06:29:14;;;;;;;4.85;2.78;;;17.50;99.90;;;;;;5043911;28;20720;-76
2021/06/13 06:31:40;;;;;;;6.18;3.33;;;17.70;99.90;;;;;;5032129;28;20074;-76
2021/06/13 06:36:38;;;;;;;5.18;2.72;;;17.70;99.90;;;;;;5039112;28;20127;-75
2021/06/13 06:39:04;;;;;;;11.95;3.05;;;17.70;99.90;;;;;;5037674;28;20525;-75
2021/06/13 06:41:29;;;;;;;6.65;2.78;;;17.70;99.90;;;;;;5041905;28;20074;-75
2021/06/13 06:43:55;;;;;;;5.10;2.47;;;17.70;99.90;;;;;;5031448;28;20096;-75
2021/06/13 06:46:21;;;;;;;5.25;2.63;;;17.90;99.90;;;;;;5018620;28;20213;-75
2021/06/13 06:48:46;;;;;;;3.92;2.13;;;17.90;99.90;;;;;;5010899;28;20098;-75
2021/06/13 06:51:12;;;;;;;4.85;2.95;;;18.10;99.90;;;;;;5010365;28;20289;-75
2021/06/13 06:53:40;;;;;;;5.65;2.95;;;18.20;99.90;;;;;;5017560;28;20427;-75
2021/06/13 06:56:06;;;;;;;4.60;2.30;;;18.10;99.90;;;;;;5015536;28;20121;-75
2021/06/13 06:58:31;;;;;;;4.28;2.60;;;18.10;99.90;;;;;;5019885;28;20086;-75
2021/06/13 07:00:57;;;;;;;4.18;2.42;;;18.10;99.90;;;;;;5011873;28;20088;-74
2021/06/13 07:03:22;;;;;;;4.05;2.78;;;18.30;99.90;;;;;;5010928;28;20090;-75
2021/06/13 07:05:48;;;;;;;4.28;2.42;;;18.10;99.90;;;;;;5015935;28;20116;-75
2021/06/13 07:08:14;;;;;;;4.65;2.20;;;18.30;99.90;;;;;;5017248;28;20090;-75
2021/06/13 07:10:39;;;;;;;6.78;2.72;;;18.10;99.90;;;;;;5010139;28;20074;-75
2021/06/13 07:13:05;;;;;;;7.70;2.45;;;18.10;99.90;;;;;;5009667;28;20078;-74
2021/06/13 07:15:31;;;;;;;4.40;2.90;;;18.10;99.90;;;;;;5014255;28;20094;-74
2021/06/13 07:17:57;;;;;;;4.68;2.60;;;18.30;99.90;;;;;;5009857;28;20169;-74
2021/06/13 07:20:22;;;;;;;7.60;3.05;;;18.40;99.90;;;;;;4992508;28;20958;-74
2021/06/13 07:22:48;;;;;;;4.25;2.70;;;18.50;99.90;;;;;;5034584;28;20101;-74
2021/06/13 07:25:14;;;;;;;2.95;2.30;;;18.50;99.90;;;;;;5039794;28;20537;-75
2021/06/13 07:27:41;;;;;;;5.82;2.78;;;18.60;99.90;;;;;;5038142;28;20147;-74
2021/06/13 07:30:10;;;;;;;6.13;2.83;;;18.60;99.90;;;;;;5012789;28;20101;-75
2021/06/13 07:32:36;;;;;;;5.43;2.70;;;18.50;99.90;;;;;;5012355;28;20082;-74
2021/06/13 07:35:06;;;;;;;5.18;2.33;;;18.50;99.90;;;;;;5008838;28;20128;-75
2021/06/13 07:37:32;;;;;;;6.65;2.75;;;18.50;99.90;;;;;;5024078;28;20129;-75
2021/06/13 07:39:58;;;;;;;5.40;2.28;;;18.80;99.90;;;;;;4996884;28;20556;-77
2021/06/13 07:42:24;;;;;;;4.25;2.35;;;18.90;99.90;;;;;;5021981;28;20070;-76
2021/06/13 07:44:51;;;;;;;7.10;3.08;;;19.00;99.90;;;;;;5024403;28;20560;-74
2021/06/13 07:47:17;;;;;;;5.90;2.53;;;18.80;99.90;;;;;;5015228;28;20078;-75
2021/06/13 07:49:43;;;;;;;7.60;2.72;;;18.80;99.90;;;;;;5010925;28;20079;-79
2021/06/13 07:52:09;;;;;;;4.00;2.40;;;18.60;99.90;;;;;;5030024;28;20081;-75
2021/06/13 07:54:37;;;;;;;5.90;2.72;;;18.70;99.90;;;;;;5030325;28;20085;-75
2021/06/13 07:57:03;;;;;;;4.55;2.80;;;18.80;99.90;;;;;;5030185;28;20105;-74
2021/06/13 07:59:29;;;;;;;5.40;2.70;;;18.90;99.90;;;;;;5030616;28;20522;-75
2021/06/13 08:01:54;;;;;;;6.07;4.03;;;18.90;99.90;;;;;;5005001;28;20232;-75
2021/06/13 08:04:21;;;;;;;5.82;3.22;;;19.00;99.90;;;;;;5013266;28;20081;-75
2021/06/13 08:06:46;;;;;;;6.65;2.80;;;18.90;99.90;;;;;;5016577;28;20121;-76
2021/06/13 08:09:12;;;;;;;4.38;2.70;;;18.80;99.90;;;;;;5020666;28;20121;-74
2021/06/13 08:11:37;;;;;;;3.45;2.63;;;18.70;99.90;;;;;;5028814;28;20450;-75
2021/06/13 08:14:03;;;;;;;6.47;2.78;;;18.80;99.90;;;;;;5026368;28;20089;-76
2021/06/13 08:16:29;;;;;;;4.80;2.72;;;19.00;99.90;;;;;;5019276;28;20117;-75
2021/06/13 08:18:55;;;;;;;6.55;2.53;;;19.10;99.90;;;;;;5021450;28;20095;-75
2021/06/13 08:21:21;;;;;;;5.40;2.60;;;19.40;99.90;;;;;;4981743;28;20086;-75
2021/06/13 08:23:47;;;;;;;9.10;2.95;;;19.30;99.90;;;;;;5018567;28;20669;-74
2021/06/13 08:26:13;;;;;;;7.93;2.70;;;19.40;99.90;;;;;;5021985;28;20554;-75
2021/06/13 08:28:39;;;;;;;6.95;2.53;;;19.60;99.90;;;;;;5026463;28;20584;-75
2021/06/13 08:31:05;;;;;;;5.30;2.50;;;19.70;99.90;;;;;;5012965;28;20078;-75
2021/06/13 08:33:32;;;;;;;3.25;2.50;;;19.60;99.90;;;;;;5024778;28;20874;-75
2021/06/13 08:35:57;;;;;;;4.28;2.30;;;19.10;99.90;;;;;;5003503;28;20129;-75
2021/06/13 08:38:24;;;;;;;4.30;2.50;;;19.30;99.90;;;;;;5025219;28;20168;-76
2021/06/13 08:40:50;;;;;;;2.97;2.42;;;19.60;99.90;;;;;;5021524;28;20077;-75
2021/06/13 08:43:16;;;;;;;4.57;2.60;;;19.70;99.90;;;;;;5023950;28;20168;-76
2021/06/13 08:45:44;;;;;;;7.22;2.70;;;19.70;99.90;;;;;;5004114;28;21075;-75
2021/06/13 08:48:10;;;;;;;7.00;2.92;;;19.70;99.90;;;;;;5027065;28;20105;-75
2021/06/13 08:50:37;;;;;;;4.63;2.58;;;19.70;99.90;;;;;;5028400;28;20153;-76
2021/06/13 08:53:03;;;;;;;3.38;2.00;;;19.80;99.90;;;;;;5004753;28;20088;-76
2021/06/13 08:55:30;;;;;;;7.35;2.33;;;19.90;99.90;;;;;;5018967;28;20483;-76
2021/06/13 08:57:56;;;;;;;4.32;2.60;;;20.10;99.90;;;;;;5009605;28;20081;-75
2021/06/13 09:00:29;;;;;;;3.22;2.28;;;20.20;99.90;;;;;;5026228;28;20165;-76
2021/06/13 09:02:55;;;;;;;5.00;2.33;;;19.70;99.90;;;;;;5024606;28;20219;-76
2021/06/13 09:05:24;;;;;;;5.13;2.45;;;19.60;99.90;;;;;;5025940;28;20152;-75
2021/06/13 09:07:55;;;;;;;4.78;2.95;;;19.60;99.90;;;;;;5027368;28;20094;-77
2021/06/13 09:10:23;;;;;;;5.00;3.08;;;20.00;99.90;;;;;;5029716;28;20487;-76
2021/06/13 09:12:51;;;;;;;6.57;2.67;;;20.00;99.90;;;;;;5027945;28;20065;-78
2021/06/13 09:15:17;;;;;;;4.25;2.90;;;19.80;99.90;;;;;;5003101;28;20090;-77
2021/06/13 09:17:44;;;;;;;3.70;2.33;;;19.60;99.90;;;;;;5026801;28;20140;-77
2021/06/13 09:20:24;;;;;;;3.53;2.20;;;19.50;99.90;;;;;;5028377;28;20082;-76
2021/06/13 09:23:11;;;;;;;4.35;2.30;;;19.70;99.90;;;;;;4980610;28;20168;-77
2021/06/13 09:25:41;;;;;;;5.05;2.60;;;19.90;99.90;;;;;;5026298;28;20169;-73
2021/06/13 09:28:17;;;;;;;6.10;2.45;;;19.70;99.90;;;;;;5015124;28;20094;-76
2021/06/13 09:30:49;;;;;;;4.68;2.25;;;19.90;99.90;;;;;;5019913;28;20070;-75
2021/06/13 09:33:27;;;;;;;4.25;2.72;;;20.00;99.90;;;;;;5022895;28;20161;-75
2021/06/13 09:35:53;;;;;;;4.05;2.40;;;19.90;99.90;;;;;;5017812;28;20101;-76
2021/06/13 09:38:29;;;;;;;5.40;2.15;;;20.00;99.90;;;;;;5029878;28;20081;-75
2021/06/13 09:41:05;;;;;;;5.72;2.47;;;20.20;99.90;;;;;;5022100;28;20117;-76
2021/06/13 09:43:41;;;;;;;5.00;2.13;;;20.10;99.90;;;;;;5015603;28;20706;-75
2021/06/13 09:46:13;;;;;;;4.72;2.28;;;20.40;99.90;;;;;;5018626;28;20094;-75
2021/06/13 09:48:44;;;;;;;5.22;2.38;;;20.50;99.90;;;;;;5011565;28;20082;-77
2021/06/13 09:51:12;;;;;;;5.47;2.40;;;20.30;99.90;;;;;;5016003;28;20071;-74
2021/06/13 09:53:46;;;;;;;4.18;2.30;;;20.10;99.90;;;;;;5013540;28;20086;-77
2021/06/13 09:56:13;;;;;;;6.10;2.22;;;20.30;99.90;;;;;;5013216;28;20096;-75
2021/06/13 09:59:13;;;;;;;3.22;2.10;;;20.40;99.90;;;;;;5026540;28;20442;-75
2021/06/13 10:01:41;;;;;;;6.03;2.70;;;20.20;99.90;;;;;;5016325;28;20090;-76
2021/06/13 10:04:17;;;;;;;3.63;2.10;;;19.80;99.90;;;;;;5014293;28;20082;-75
2021/06/13 10:06:46;;;;;;;4.93;2.05;;;19.90;99.90;;;;;;5026086;28;20160;-76
2021/06/13 10:09:12;;;;;;;3.72;1.70;;;19.80;99.90;;;;;;5032703;28;20441;-74
2021/06/13 10:11:38;;;;;;;4.30;2.58;;;20.00;99.90;;;;;;5031929;28;20100;-74
2021/06/13 10:14:08;;;;;;;5.43;2.30;;;19.90;99.90;;;;;;5018957;28;20074;-74
2021/06/13 10:16:39;;;;;;;6.78;1.63;;;20.30;99.90;;;;;;5017541;28;20161;-74
2021/06/13 10:19:08;;;;;;;3.38;1.90;;;20.40;99.90;;;;;;5011112;28;20078;-74
2021/06/13 10:21:37;;;;;;;3.13;1.92;;;20.60;99.90;;;;;;5019590;28;20078;-74
2021/06/13 10:24:07;;;;;;;5.00;1.90;;;20.90;99.90;;;;;;5025865;28;20165;-76
2021/06/13 10:26:35;;;;;;;2.38;1.77;;;20.70;99.90;;;;;;5022480;28;20088;-77
2021/06/13 10:29:02;;;;;;;3.83;1.67;;;20.60;99.90;;;;;;5021490;28;20121;-76
2021/06/13 10:31:27;;;;;;;4.68;2.22;;;20.80;99.90;;;;;;5019003;28;20158;-77
2021/06/13 10:33:54;;;;;;;6.53;1.98;;;20.80;99.90;;;;;;5019336;28;20157;-75
2021/06/13 10:36:20;;;;;;;6.07;2.13;;;20.20;99.50;;;;;;5024110;28;20144;-76
2021/06/13 10:38:46;;;;;;;4.90;2.00;;;20.10;99.90;;;;;;5021346;28;20505;-76
2021/06/13 10:41:11;;;;;;;4.80;2.10;;;20.00;98.40;;;;;;5013465;28;20082;-75
2021/06/13 10:43:39;;;;;;;4.68;2.17;;;20.40;99.90;;;;;;5018205;28;20172;-75
2021/06/13 10:46:09;;;;;;;4.03;1.80;;;20.50;98.30;;;;;;4994338;28;20719;-76
2021/06/13 10:48:50;;;;;;;2.42;1.60;;;20.70;99.90;;;;;;5007185;28;20618;-75
2021/06/13 10:51:33;;;;;;;3.65;1.60;;;21.00;99.50;;;;;;5011804;28;20098;-76
2021/06/13 10:54:26;;;;;;;3.33;1.70;;;20.80;99.50;;;;;;5007622;28;20081;-75
2021/06/13 10:57:00;;;;;;;2.00;1.42;;;20.90;99.90;;;;;;4976105;28;20533;-75
2021/06/13 10:59:32;;;;;;;4.70;1.93;;;20.80;98.60;;;;;;5021662;28;20540;-73
2021/06/13 11:02:13;;;;;;;3.97;1.95;;;20.70;98.20;;;;;;5029700;28;20199;-75
2021/06/13 11:04:59;;;;;;;3.78;1.52;;;20.60;97.00;;;;;;5013213;28;20109;-73
2021/06/13 11:07:28;;;;;;;5.40;1.50;;;20.60;98.30;;;;;;5019227;28;20139;-74
2021/06/13 11:10:04;;;;;;;2.60;2.03;;;20.70;98.10;;;;;;5020601;28;20079;-78
2021/06/13 11:12:56;;;;;;;2.80;1.60;;;20.90;98.10;;;;;;5031617;28;20076;-73
2021/06/13 11:15:22;;;;;;;2.45;1.40;;;21.30;99.90;;;;;;5013961;28;22159;-75
2021/06/13 11:17:56;;;;;;;3.22;1.27;;;21.40;98.30;;;;;;5007193;28;20073;-74
2021/06/13 11:20:34;;;;;;;6.43;1.75;;;21.40;98.40;;;;;;5004050;28;20124;-78
2021/06/13 11:23:01;;;;;;;2.60;1.45;;;21.30;98.10;;;;;;5013146;28;20106;-75
2021/06/13 11:25:29;;;;;;;1.70;1.38;;;21.30;97.90;;;;;;5015756;28;20094;-75
2021/06/13 11:28:11;;;;;;;2.30;1.42;;;21.50;98.40;;;;;;5023524;28;20100;-73
2021/06/13 11:30:43;;;;;;;7.13;2.13;;;21.60;97.10;;;;;;5022812;28;20069;-73
2021/06/13 11:33:10;;;;;;;3.55;1.60;;;21.80;98.50;;;;;;5018599;28;20071;-73
2021/06/13 11:35:42;;;;;;;1.92;1.58;;;21.70;96.20;;;;;;5022623;28;20117;-72
2021/06/13 11:38:14;;;;;;;1.92;1.20;;;21.70;97.80;;;;;;5015323;28;20566;-76
2021/06/13 11:40:51;;;;;;;2.47;1.52;;;21.60;94.20;;;;;;5022359;28;20088;-73
2021/06/13 11:43:20;;;;;;;1.98;1.40;;;21.20;93.00;;;;;;5010798;28;20082;-73
2021/06/13 11:45:53;;;;;;;3.10;1.10;;;21.10;94.40;;;;;;5008802;28;20125;-74
2021/06/13 11:48:24;;;;;;;2.45;1.60;;;21.40;96.40;;;;;;5009563;28;20173;-73
2021/06/13 11:51:08;;;;;;;4.18;1.50;;;21.50;94.60;;;;;;5009549;28;20071;-74
2021/06/13 11:54:00;;;;;;;1.88;1.23;;;21.50;94.20;;;;;;5012252;28;20550;-75
2021/06/13 11:56:35;;;;;;;3.75;1.40;;;21.40;97.00;;;;;;5008940;28;20102;-75
2021/06/13 11:59:02;;;;;;;3.08;1.30;;;21.50;92.60;;;;;;4993910;28;20172;-75
2021/06/13 12:01:28;;;;;;;2.95;1.38;;;21.30;93.30;;;;;;5001510;28;20217;-74
2021/06/13 12:03:55;;;;;;;1.55;1.20;;;21.40;93.30;;;;;;5022331;28;20182;-74
2021/06/13 12:06:22;;;;;;;1.58;1.02;;;21.20;92.90;;;;;;5013127;28;20109;-74
2021/06/13 12:08:50;;;;;;;1.35;0.90;;;21.40;93.00;;;;;;5016470;28;20097;-73
2021/06/13 12:11:33;;;;;;;7.65;5.30;;;21.20;91.40;;;;;;5022114;28;20082;-74
2021/06/13 12:14:28;;;;;;;2.00;1.05;;;21.20;91.30;;;;;;5024638;28;20097;-76
2021/06/13 12:16:59;;;;;;;2.47;1.05;;;21.20;91.40;;;;;;5015372;28;20078;-74
2021/06/13 12:19:40;;;;;;;2.15;1.33;;;21.30;92.40;;;;;;5004271;28;20085;-71
2021/06/13 12:22:32;;;;;;;4.28;1.20;;;21.40;93.80;;;;;;5003275;28;20083;-74
2021/06/13 12:27:35;;;;;;;3.83;1.20;;;21.40;94.30;;;;;;5008045;28;20098;-72
2021/06/13 12:30:15;;;;;;;3.08;1.33;;;21.60;92.20;;;;;;5008737;28;20577;-75
2021/06/13 12:32:52;;;;;;;2.53;1.23;;;21.40;89.60;;;;;;5008708;28;20153;-74
2021/06/13 12:35:18;;;;;;;1.85;1.33;;;21.40;90.60;;;;;;5010127;28;20474;-73
2021/06/13 12:38:03;;;;;;;2.05;1.65;;;21.80;95.70;;;;;;5024150;28;20087;-75
2021/06/13 12:40:37;;;;;;;2.67;1.00;;;21.90;93.10;;;;;;5020732;28;20073;-72
2021/06/13 12:43:04;;;;;;;2.00;1.00;;;21.80;93.40;;;;;;5021992;28;20683;-74
2021/06/13 12:45:30;;;;;;;3.30;1.35;;;22.00;94.70;;;;;;5027394;28;20098;-73
2021/06/13 12:48:03;;;;;;;3.95;1.42;;;22.00;93.70;;;;;;5024600;28;20088;-73
2021/06/13 12:50:29;;;;;;;2.17;1.00;;;21.90;92.00;;;;;;5014156;28;20066;-74
2021/06/13 12:52:57;;;;;;;2.60;1.25;;;21.70;91.40;;;;;;5019446;28;20074;-72
2021/06/13 12:55:24;;;;;;;1.23;0.80;;;21.70;86.30;;;;;;5012305;28;20118;-75
2021/06/13 12:57:52;;;;;;;0.77;0.65;;;21.50;88.20;;;;;;5011555;28;20071;-76
2021/06/13 13:00:20;;;;;;;2.53;0.90;;;21.90;92.30;;;;;;5008984;28;20110;-76
2021/06/13 13:02:45;;;;;;;2.90;0.80;;;21.80;90.80;;;;;;5010190;28;20074;-74